sensor_id;sensor_type;location;lat;lon;timestamp;pressure;altitude;pressure_sealevel;temperature;humidity
66945;BME280;53853;51.982;5.928;2023-01-30T00:01:47;101619.25;;;7.08;74.54
66945;BME280;53853;51.982;5.928;2023-01-30T00:04:19;101619.78;;;7.13;74.36
66945;BME280;53853;51.982;5.928;2023-01-30T00:06:49;101618.72;;;7.16;74.46
66945;BME280;53853;51.982;5.928;2023-01-30T00:09:19;101607.50;;;7.12;74.52
66945;BME280;53853;51.982;5.928;2023-01-30T00:11:49;101599.00;;;7.07;75.03
66945;BME280;53853;51.982;5.928;2023-01-30T00:14:19;101607.72;;;7.09;74.97
66945;BME280;53853;51.982;5.928;2023-01-30T00:16:49;101599.00;;;7.07;75.06
66945;BME280;53853;51.982;5.928;2023-01-30T00:19:21;101605.28;;;7.06;75.09
66945;BME280;53853;51.982;5.928;2023-01-30T00:21:51;101597.22;;;7.07;75.40
66945;BME280;53853;51.982;5.928;2023-01-30T00:24:21;101597.13;;;7.09;75.53
66945;BME280;53853;51.982;5.928;2023-01-30T00:26:51;101600.59;;;7.10;75.44
66945;BME280;53853;51.982;5.928;2023-01-30T00:29:21;101599.66;;;7.11;75.67
66945;BME280;53853;51.982;5.928;2023-01-30T00:31:51;101590.09;;;7.08;75.49
66945;BME280;53853;51.982;5.928;2023-01-30T00:34:23;101576.53;;;7.13;75.55
66945;BME280;53853;51.982;5.928;2023-01-30T00:36:53;101570.16;;;7.15;75.76
66945;BME280;53853;51.982;5.928;2023-01-30T00:39:26;101560.13;;;7.07;75.84
66945;BME280;53853;51.982;5.928;2023-01-30T00:41:56;101566.38;;;7.06;76.03
66945;BME280;53853;51.982;5.928;2023-01-30T00:44:47;101562.66;;;7.09;76.13
66945;BME280;53853;51.982;5.928;2023-01-30T00:47:29;101557.97;;;7.13;76.30
66945;BME280;53853;51.982;5.928;2023-01-30T00:50:02;101553.94;;;7.07;76.68
66945;BME280;53853;51.982;5.928;2023-01-30T00:52:32;101555.97;;;7.03;77.08
66945;BME280;53853;51.982;5.928;2023-01-30T00:55:02;101551.63;;;7.02;77.18
66945;BME280;53853;51.982;5.928;2023-01-30T00:57:32;101535.84;;;7.01;77.44
66945;BME280;53853;51.982;5.928;2023-01-30T01:00:03;101541.13;;;7.01;77.48
66945;BME280;53853;51.982;5.928;2023-01-30T01:02:35;101526.72;;;7.05;77.73
66945;BME280;53853;51.982;5.928;2023-01-30T01:05:08;101516.13;;;7.05;77.71
66945;BME280;53853;51.982;5.928;2023-01-30T01:07:38;101517.72;;;7.07;77.70
66945;BME280;53853;51.982;5.928;2023-01-30T01:10:09;101506.13;;;7.08;77.79
66945;BME280;53853;51.982;5.928;2023-01-30T01:12:42;101513.88;;;7.12;77.73
66945;BME280;53853;51.982;5.928;2023-01-30T01:15:13;101524.56;;;7.10;78.04
66945;BME280;53853;51.982;5.928;2023-01-30T01:17:43;101526.28;;;7.11;78.15
66945;BME280;53853;51.982;5.928;2023-01-30T01:20:19;101516.63;;;7.10;78.39
66945;BME280;53853;51.982;5.928;2023-01-30T01:22:52;101515.25;;;7.17;78.14
66945;BME280;53853;51.982;5.928;2023-01-30T01:25:24;101511.84;;;7.15;78.03
66945;BME280;53853;51.982;5.928;2023-01-30T01:27:54;101501.78;;;7.20;78.28
66945;BME280;53853;51.982;5.928;2023-01-30T01:30:24;101505.97;;;7.23;78.24
66945;BME280;53853;51.982;5.928;2023-01-30T01:32:54;101500.56;;;7.24;78.11
66945;BME280;53853;51.982;5.928;2023-01-30T01:35:27;101493.59;;;7.23;78.24
66945;BME280;53853;51.982;5.928;2023-01-30T01:37:57;101486.38;;;7.25;78.42
66945;BME280;53853;51.982;5.928;2023-01-30T01:40:27;101475.16;;;7.22;78.57
66945;BME280;53853;51.982;5.928;2023-01-30T01:43:15;101481.19;;;7.24;78.76
66945;BME280;53853;51.982;5.928;2023-01-30T01:45:47;101470.47;;;7.25;78.92
66945;BME280;53853;51.982;5.928;2023-01-30T01:48:21;101472.38;;;7.23;79.05
66945;BME280;53853;51.982;5.928;2023-01-30T01:50:57;101456.47;;;7.23;79.16
66945;BME280;53853;51.982;5.928;2023-01-30T01:53:34;101457.19;;;7.25;79.36
66945;BME280;53853;51.982;5.928;2023-01-30T01:56:05;101462.00;;;7.20;79.42
66945;BME280;53853;51.982;5.928;2023-01-30T01:58:38;101450.94;;;7.27;79.55
66945;BME280;53853;51.982;5.928;2023-01-30T02:01:10;101450.72;;;7.30;79.47
66945;BME280;53853;51.982;5.928;2023-01-30T02:03:43;101444.56;;;7.29;79.50
66945;BME280;53853;51.982;5.928;2023-01-30T02:06:19;101443.59;;;7.30;79.69
66945;BME280;53853;51.982;5.928;2023-01-30T02:08:52;101439.16;;;7.31;79.75
66945;BME280;53853;51.982;5.928;2023-01-30T02:11:25;101430.34;;;7.30;79.65
66945;BME280;53853;51.982;5.928;2023-01-30T02:13:59;101437.47;;;7.30;79.80
66945;BME280;53853;51.982;5.928;2023-01-30T02:16:31;101432.88;;;7.32;79.62
66945;BME280;53853;51.982;5.928;2023-01-30T02:19:04;101435.19;;;7.36;79.96
66945;BME280;53853;51.982;5.928;2023-01-30T02:25:09;101432.94;;;7.43;80.05
66945;BME280;53853;51.982;5.928;2023-01-30T02:28:09;101446.91;;;7.45;80.29
66945;BME280;53853;51.982;5.928;2023-01-30T02:31:09;101443.19;;;7.48;80.03
66945;BME280;53853;51.982;5.928;2023-01-30T02:33:49;101437.78;;;7.49;80.52
66945;BME280;53853;51.982;5.928;2023-01-30T02:36:27;101421.97;;;7.48;80.74
66945;BME280;53853;51.982;5.928;2023-01-30T02:39:05;101432.38;;;7.51;80.97
66945;BME280;53853;51.982;5.928;2023-01-30T02:41:46;101440.31;;;7.51;81.40
66945;BME280;53853;51.982;5.928;2023-01-30T02:47:05;101421.97;;;7.48;81.87
66945;BME280;53853;51.982;5.928;2023-01-30T02:49:39;101417.50;;;7.48;82.21
66945;BME280;53853;51.982;5.928;2023-01-30T02:52:12;101409.31;;;7.51;82.35
66945;BME280;53853;51.982;5.928;2023-01-30T02:54:42;101404.03;;;7.51;82.78
66945;BME280;53853;51.982;5.928;2023-01-30T02:57:19;101394.13;;;7.53;83.05
66945;BME280;53853;51.982;5.928;2023-01-30T02:59:55;101395.59;;;7.57;83.07
66945;BME280;53853;51.982;5.928;2023-01-30T03:02:48;101391.88;;;7.60;82.96
66945;BME280;53853;51.982;5.928;2023-01-30T03:05:57;101389.13;;;7.61;83.59
66945;BME280;53853;51.982;5.928;2023-01-30T03:08:39;101382.22;;;7.59;83.79
66945;BME280;53853;51.982;5.928;2023-01-30T03:11:11;101387.41;;;7.60;84.37
66945;BME280;53853;51.982;5.928;2023-01-30T03:13:48;101385.59;;;7.61;84.42
66945;BME280;53853;51.982;5.928;2023-01-30T03:16:25;101378.63;;;7.60;84.56
66945;BME280;53853;51.982;5.928;2023-01-30T03:19:00;101383.47;;;7.66;84.40
66945;BME280;53853;51.982;5.928;2023-01-30T03:21:32;101379.00;;;7.67;84.44
66945;BME280;53853;51.982;5.928;2023-01-30T03:24:02;101383.69;;;7.63;84.38
66945;BME280;53853;51.982;5.928;2023-01-30T03:26:34;101379.47;;;7.60;84.78
66945;BME280;53853;51.982;5.928;2023-01-30T03:29:06;101371.50;;;7.60;84.78
66945;BME280;53853;51.982;5.928;2023-01-30T03:31:36;101364.25;;;7.62;84.97
66945;BME280;53853;51.982;5.928;2023-01-30T03:34:08;101377.16;;;7.56;85.01
66945;BME280;53853;51.982;5.928;2023-01-30T03:36:39;101373.56;;;7.57;85.20
66945;BME280;53853;51.982;5.928;2023-01-30T03:39:09;101369.09;;;7.57;85.34
66945;BME280;53853;51.982;5.928;2023-01-30T03:41:40;101373.31;;;7.60;85.47
66945;BME280;53853;51.982;5.928;2023-01-30T03:44:10;101365.47;;;7.58;85.30
66945;BME280;53853;51.982;5.928;2023-01-30T03:46:42;101372.44;;;7.59;85.44
66945;BME280;53853;51.982;5.928;2023-01-30T03:49:14;101361.84;;;7.59;85.10
66945;BME280;53853;51.982;5.928;2023-01-30T03:51:44;101367.91;;;7.61;85.35
66945;BME280;53853;51.982;5.928;2023-01-30T03:54:14;101374.03;;;7.62;85.33
66945;BME280;53853;51.982;5.928;2023-01-30T03:56:44;101365.72;;;7.67;85.31
66945;BME280;53853;51.982;5.928;2023-01-30T03:59:14;101364.53;;;7.71;85.19
66945;BME280;53853;51.982;5.928;2023-01-30T04:01:50;101363.44;;;7.73;84.88
66945;BME280;53853;51.982;5.928;2023-01-30T04:04:23;101362.38;;;7.76;84.91
66945;BME280;53853;51.982;5.928;2023-01-30T04:06:53;101367.03;;;7.72;84.87
66945;BME280;53853;51.982;5.928;2023-01-30T04:09:23;101363.44;;;7.73;85.06
66945;BME280;53853;51.982;5.928;2023-01-30T04:11:53;101364.28;;;7.74;85.06
66945;BME280;53853;51.982;5.928;2023-01-30T04:14:23;101362.38;;;7.76;84.88
66945;BME280;53853;51.982;5.928;2023-01-30T04:17:16;101371.88;;;7.78;84.93
66945;BME280;53853;51.982;5.928;2023-01-30T04:20:12;101368.88;;;7.83;84.71
66945;BME280;53853;51.982;5.928;2023-01-30T04:22:48;101373.34;;;7.83;84.42
66945;BME280;53853;51.982;5.928;2023-01-30T04:25:18;101371.53;;;7.83;84.39
66945;BME280;53853;51.982;5.928;2023-01-30T04:27:47;101370.34;;;7.87;84.30
66945;BME280;53853;51.982;5.928;2023-01-30T04:30:21;101367.69;;;7.87;84.29
66945;BME280;53853;51.982;5.928;2023-01-30T04:32:55;101373.00;;;7.87;84.25
66945;BME280;53853;51.982;5.928;2023-01-30T04:35:28;101370.34;;;7.87;84.40
66945;BME280;53853;51.982;5.928;2023-01-30T04:37:58;101366.97;;;7.85;84.27
66945;BME280;53853;51.982;5.928;2023-01-30T04:40:28;101358.25;;;7.83;84.44
66945;BME280;53853;51.982;5.928;2023-01-30T04:42:57;101360.31;;;7.79;84.49
66945;BME280;53853;51.982;5.928;2023-01-30T04:45:46;101349.59;;;7.81;84.56
66945;BME280;53853;51.982;5.928;2023-01-30T04:48:18;101348.88;;;7.79;84.43
66945;BME280;53853;51.982;5.928;2023-01-30T04:50:55;101357.53;;;7.81;84.63
66945;BME280;53853;51.982;5.928;2023-01-30T04:53:26;101355.00;;;7.79;85.16
66945;BME280;53853;51.982;5.928;2023-01-30T04:55:56;101372.63;;;7.80;85.46
66945;BME280;53853;51.982;5.928;2023-01-30T04:58:26;101375.41;;;7.79;85.55
66945;BME280;53853;51.982;5.928;2023-01-30T05:01:12;101368.16;;;7.81;85.66
66945;BME280;53853;51.982;5.928;2023-01-30T05:03:43;101376.00;;;7.83;85.80
66945;BME280;53853;51.982;5.928;2023-01-30T05:06:15;101368.63;;;7.86;85.66
66945;BME280;53853;51.982;5.928;2023-01-30T05:08:47;101358.16;;;7.85;85.16
66945;BME280;53853;51.982;5.928;2023-01-30T05:11:18;101361.44;;;7.88;85.25
66945;BME280;53853;51.982;5.928;2023-01-30T05:13:48;101363.81;;;7.91;85.07
66945;BME280;53853;51.982;5.928;2023-01-30T05:16:18;101368.03;;;7.94;84.93
66945;BME280;53853;51.982;5.928;2023-01-30T05:18:49;101359.97;;;7.95;84.60
66945;BME280;53853;51.982;5.928;2023-01-30T05:21:24;101364.31;;;7.96;84.33
66945;BME280;53853;51.982;5.928;2023-01-30T05:23:55;101356.34;;;7.96;84.42
66945;BME280;53853;51.982;5.928;2023-01-30T05:26:25;101360.69;;;7.97;84.44
66945;BME280;53853;51.982;5.928;2023-01-30T05:28:56;101362.38;;;7.98;84.00
66945;BME280;53853;51.982;5.928;2023-01-30T05:31:26;101361.53;;;7.98;84.15
66945;BME280;53853;51.982;5.928;2023-01-30T05:33:56;101364.91;;;8.00;83.96
66945;BME280;53853;51.982;5.928;2023-01-30T05:36:28;101365.50;;;8.04;83.93
66945;BME280;53853;51.982;5.928;2023-01-30T05:38:58;101359.00;;;8.08;83.36
66945;BME280;53853;51.982;5.928;2023-01-30T05:41:28;101371.19;;;8.10;83.27
66945;BME280;53853;51.982;5.928;2023-01-30T05:43:58;101378.91;;;8.13;83.11
66945;BME280;53853;51.982;5.928;2023-01-30T05:46:28;101380.13;;;8.09;82.23
66945;BME280;53853;51.982;5.928;2023-01-30T05:48:58;101375.66;;;8.10;82.39
66945;BME280;53853;51.982;5.928;2023-01-30T05:51:32;101382.53;;;8.12;82.24
66945;BME280;53853;51.982;5.928;2023-01-30T05:54:02;101388.56;;;8.14;81.38
66945;BME280;53853;51.982;5.928;2023-01-30T05:56:33;101383.25;;;8.14;81.12
66945;BME280;53853;51.982;5.928;2023-01-30T05:59:03;101385.09;;;8.14;80.75
66945;BME280;53853;51.982;5.928;2023-01-30T06:01:33;101373.47;;;8.15;80.33
66945;BME280;53853;51.982;5.928;2023-01-30T06:04:02;101374.34;;;8.15;79.66
66945;BME280;53853;51.982;5.928;2023-01-30T06:06:35;101378.91;;;8.13;78.76
66945;BME280;53853;51.982;5.928;2023-01-30T06:09:05;101375.66;;;8.10;78.00
66945;BME280;53853;51.982;5.928;2023-01-30T06:11:35;101367.34;;;8.03;77.78
66945;BME280;53853;51.982;5.928;2023-01-30T06:14:05;101367.94;;;7.95;77.18
66945;BME280;53853;51.982;5.928;2023-01-30T06:16:35;101375.19;;;7.93;77.65
66945;BME280;53853;51.982;5.928;2023-01-30T06:19:05;101377.59;;;7.85;76.05
66945;BME280;53853;51.982;5.928;2023-01-30T06:21:37;101390.22;;;7.82;75.59
66945;BME280;53853;51.982;5.928;2023-01-30T06:24:07;101406.50;;;7.77;75.46
66945;BME280;53853;51.982;5.928;2023-01-30T06:26:37;101398.53;;;7.77;75.64
66945;BME280;53853;51.982;5.928;2023-01-30T06:29:07;101403.00;;;7.76;75.65
66945;BME280;53853;51.982;5.928;2023-01-30T06:31:37;101411.69;;;7.78;75.13
66945;BME280;53853;51.982;5.928;2023-01-30T06:34:07;101408.19;;;7.78;74.67
66945;BME280;53853;51.982;5.928;2023-01-30T06:36:39;101410.13;;;7.76;75.15
66945;BME280;53853;51.982;5.928;2023-01-30T06:39:09;101393.56;;;7.72;74.72
66945;BME280;53853;51.982;5.928;2023-01-30T06:41:39;101405.53;;;7.67;73.96
66945;BME280;53853;51.982;5.928;2023-01-30T06:44:09;101400.56;;;7.62;74.03
66945;BME280;53853;51.982;5.928;2023-01-30T06:46:39;101402.63;;;7.58;74.09
66945;BME280;53853;51.982;5.928;2023-01-30T06:49:09;101406.44;;;7.54;74.73
66945;BME280;53853;51.982;5.928;2023-01-30T06:51:42;101412.97;;;7.50;74.22
66945;BME280;53853;51.982;5.928;2023-01-30T06:54:12;101412.44;;;7.45;74.12
66945;BME280;53853;51.982;5.928;2023-01-30T06:56:42;101412.06;;;7.38;74.24
66945;BME280;53853;51.982;5.928;2023-01-30T06:59:12;101410.59;;;7.34;73.99
66945;BME280;53853;51.982;5.928;2023-01-30T07:01:42;101418.03;;;7.29;74.15
66945;BME280;53853;51.982;5.928;2023-01-30T07:04:11;101423.81;;;7.23;74.41
66945;BME280;53853;51.982;5.928;2023-01-30T07:06:44;101416.81;;;7.22;74.56
66945;BME280;53853;51.982;5.928;2023-01-30T07:09:14;101426.78;;;7.18;74.16
66945;BME280;53853;51.982;5.928;2023-01-30T07:11:44;101432.31;;;7.15;74.25
66945;BME280;53853;51.982;5.928;2023-01-30T07:14:16;101444.72;;;7.15;73.86
66945;BME280;53853;51.982;5.928;2023-01-30T07:16:46;101435.09;;;7.14;73.62
66945;BME280;53853;51.982;5.928;2023-01-30T07:19:15;101449.31;;;7.13;73.85
66945;BME280;53853;51.982;5.928;2023-01-30T07:21:48;101454.00;;;7.09;74.45
66945;BME280;53853;51.982;5.928;2023-01-30T07:24:18;101465.53;;;7.08;73.70
66945;BME280;53853;51.982;5.928;2023-01-30T07:26:48;101464.94;;;7.04;73.60
66945;BME280;53853;51.982;5.928;2023-01-30T07:29:18;101457.81;;;7.05;73.90
66945;BME280;53853;51.982;5.928;2023-01-30T07:31:48;101462.38;;;7.03;73.78
66945;BME280;53853;51.982;5.928;2023-01-30T07:34:18;101458.03;;;7.02;73.78
66945;BME280;53853;51.982;5.928;2023-01-30T07:36:50;101449.34;;;7.00;73.75
66945;BME280;53853;51.982;5.928;2023-01-30T07:39:20;101457.41;;;6.98;73.60
66945;BME280;53853;51.982;5.928;2023-01-30T07:41:50;101444.28;;;6.97;73.78
66945;BME280;53853;51.982;5.928;2023-01-30T07:44:20;101455.31;;;6.91;73.83
66945;BME280;53853;51.982;5.928;2023-01-30T07:46:50;101463.38;;;6.89;74.17
66945;BME280;53853;51.982;5.928;2023-01-30T07:49:20;101466.13;;;6.87;74.25
66945;BME280;53853;51.982;5.928;2023-01-30T07:51:53;101471.66;;;6.84;73.92
66945;BME280;53853;51.982;5.928;2023-01-30T07:54:23;101464.75;;;6.82;73.63
66945;BME280;53853;51.982;5.928;2023-01-30T07:56:52;101451.63;;;6.80;73.91
66945;BME280;53853;51.982;5.928;2023-01-30T07:59:22;101455.38;;;6.78;73.76
66945;BME280;53853;51.982;5.928;2023-01-30T08:01:53;101464.13;;;6.78;73.48
66945;BME280;53853;51.982;5.928;2023-01-30T08:04:24;101453.66;;;6.77;72.97
66945;BME280;53853;51.982;5.928;2023-01-30T08:06:57;101465.09;;;6.77;73.06
66945;BME280;53853;51.982;5.928;2023-01-30T08:09:27;101462.34;;;6.79;73.34
66945;BME280;53853;51.982;5.928;2023-01-30T08:11:56;101473.78;;;6.79;73.12
66945;BME280;53853;51.982;5.928;2023-01-30T08:14:26;101483.31;;;6.82;72.87
66945;BME280;53853;51.982;5.928;2023-01-30T08:16:57;101491.16;;;6.83;72.77
66945;BME280;53853;51.982;5.928;2023-01-30T08:19:27;101491.03;;;6.85;71.46
66945;BME280;53853;51.982;5.928;2023-01-30T08:22:01;101485.53;;;6.88;71.23
66945;BME280;53853;51.982;5.928;2023-01-30T08:24:30;101478.22;;;6.92;71.28
66945;BME280;53853;51.982;5.928;2023-01-30T08:27:00;101494.00;;;6.93;70.77
66945;BME280;53853;51.982;5.928;2023-01-30T08:29:30;101499.19;;;6.95;70.52
66945;BME280;53853;51.982;5.928;2023-01-30T08:32:00;101501.50;;;6.99;70.52
66945;BME280;53853;51.982;5.928;2023-01-30T08:34:30;101508.50;;;7.00;70.38
66945;BME280;53853;51.982;5.928;2023-01-30T08:37:04;101509.97;;;7.04;69.85
66945;BME280;53853;51.982;5.928;2023-01-30T08:39:34;101514.97;;;7.09;69.97
66945;BME280;53853;51.982;5.928;2023-01-30T08:42:04;101514.97;;;7.09;69.61
66945;BME280;53853;51.982;5.928;2023-01-30T08:44:34;101498.94;;;7.11;69.04
66945;BME280;53853;51.982;5.928;2023-01-30T08:47:04;101507.50;;;7.14;69.79
66945;BME280;53853;51.982;5.928;2023-01-30T08:49:34;101509.84;;;7.19;69.25
66945;BME280;53853;51.982;5.928;2023-01-30T08:52:06;101506.09;;;7.21;69.16
66945;BME280;53853;51.982;5.928;2023-01-30T08:54:36;101511.06;;;7.26;69.63
66945;BME280;53853;51.982;5.928;2023-01-30T08:57:06;101515.19;;;7.30;68.40
66945;BME280;53853;51.982;5.928;2023-01-30T08:59:36;101534.25;;;7.35;68.28
66945;BME280;53853;51.982;5.928;2023-01-30T09:02:07;101530.44;;;7.39;68.02
66945;BME280;53853;51.982;5.928;2023-01-30T09:04:37;101540.38;;;7.49;67.87
66945;BME280;53853;51.982;5.928;2023-01-30T09:07:10;101528.94;;;7.59;67.54
66945;BME280;53853;51.982;5.928;2023-01-30T09:09:40;101542.41;;;7.69;67.20
66945;BME280;53853;51.982;5.928;2023-01-30T09:12:09;101546.28;;;7.76;67.71
66945;BME280;53853;51.982;5.928;2023-01-30T09:14:39;101557.28;;;7.83;66.93
66945;BME280;53853;51.982;5.928;2023-01-30T09:17:09;101561.41;;;7.87;66.66
66945;BME280;53853;51.982;5.928;2023-01-30T09:19:39;101556.47;;;7.94;66.82
66945;BME280;53853;51.982;5.928;2023-01-30T09:22:12;101561.22;;;8.02;66.82
66945;BME280;53853;51.982;5.928;2023-01-30T09:24:41;101561.72;;;8.07;65.34
66945;BME280;53853;51.982;5.928;2023-01-30T09:27:11;101554.25;;;8.12;65.15
66945;BME280;53853;51.982;5.928;2023-01-30T09:29:41;101560.31;;;8.14;64.98
66945;BME280;53853;51.982;5.928;2023-01-30T09:32:11;101557.41;;;8.17;65.20
66945;BME280;53853;51.982;5.928;2023-01-30T09:34:41;101554.53;;;8.20;64.92
66945;BME280;53853;51.982;5.928;2023-01-30T09:37:14;101555.72;;;8.16;64.47
66945;BME280;53853;51.982;5.928;2023-01-30T09:39:43;101551.22;;;8.16;64.95
66945;BME280;53853;51.982;5.928;2023-01-30T09:42:41;101553.78;;;8.18;64.74
66945;BME280;53853;51.982;5.928;2023-01-30T09:48:20;101564.41;;;8.18;64.86
66945;BME280;53853;51.982;5.928;2023-01-30T09:51:05;101562.50;;;8.20;64.95
66945;BME280;53853;51.982;5.928;2023-01-30T09:53:51;101577.81;;;8.28;65.26
66945;BME280;53853;51.982;5.928;2023-01-30T09:56:23;101575.78;;;8.31;64.60
66945;BME280;53853;51.982;5.928;2023-01-30T09:58:56;101575.34;;;8.38;64.63
66945;BME280;53853;51.982;5.928;2023-01-30T10:01:33;101572.31;;;8.42;64.44
66945;BME280;53853;51.982;5.928;2023-01-30T10:04:12;101576.56;;;8.45;63.51
66945;BME280;53853;51.982;5.928;2023-01-30T10:06:53;101582.75;;;8.45;64.02
66945;BME280;53853;51.982;5.928;2023-01-30T10:09:37;101587.78;;;8.48;64.31
66945;BME280;53853;51.982;5.928;2023-01-30T10:12:26;101590.84;;;8.55;64.60
66945;BME280;53853;51.982;5.928;2023-01-30T10:15:12;101594.47;;;8.65;64.42
66945;BME280;53853;51.982;5.928;2023-01-30T10:17:56;101590.28;;;8.74;64.14
66945;BME280;53853;51.982;5.928;2023-01-30T10:20:36;101593.53;;;8.78;63.97
66945;BME280;53853;51.982;5.928;2023-01-30T10:23:25;101598.25;;;8.74;62.94
66945;BME280;53853;51.982;5.928;2023-01-30T10:26:08;101600.78;;;8.76;63.17
66945;BME280;53853;51.982;5.928;2023-01-30T10:28:43;101595.59;;;8.74;62.84
66945;BME280;53853;51.982;5.928;2023-01-30T10:31:19;101594.00;;;8.72;63.53
66945;BME280;53853;51.982;5.928;2023-01-30T10:33:54;101605.81;;;8.67;63.65
66945;BME280;53853;51.982;5.928;2023-01-30T10:36:28;101611.53;;;8.63;64.07
66945;BME280;53853;51.982;5.928;2023-01-30T10:39:05;101618.50;;;8.64;64.02
66945;BME280;53853;51.982;5.928;2023-01-30T10:41:48;101625.63;;;8.63;64.09
66945;BME280;53853;51.982;5.928;2023-01-30T10:44:22;101624.53;;;8.55;63.82
66945;BME280;53853;51.982;5.928;2023-01-30T10:47:19;101629.00;;;8.54;64.49
66945;BME280;53853;51.982;5.928;2023-01-30T10:49:56;101614.75;;;8.55;64.56
66945;BME280;53853;51.982;5.928;2023-01-30T10:52:39;101612.59;;;8.60;64.74
66945;BME280;53853;51.982;5.928;2023-01-30T10:55:16;101607.66;;;8.67;64.36
66945;BME280;53853;51.982;5.928;2023-01-30T10:57:57;101585.31;;;8.69;64.00
66945;BME280;53853;51.982;5.928;2023-01-30T11:00:33;101603.56;;;8.74;63.90
66945;BME280;53853;51.982;5.928;2023-01-30T11:06:00;101602.34;;;8.89;63.30
66945;BME280;53853;51.982;5.928;2023-01-30T11:08:34;101606.59;;;8.92;62.51
66945;BME280;53853;51.982;5.928;2023-01-30T11:11:23;101613.38;;;8.96;63.31
66945;BME280;53853;51.982;5.928;2023-01-30T11:14:06;101617.81;;;8.96;62.21
66945;BME280;53853;51.982;5.928;2023-01-30T11:16:43;101613.38;;;8.96;62.44
66945;BME280;53853;51.982;5.928;2023-01-30T11:19:16;101626.78;;;8.95;62.43
66945;BME280;53853;51.982;5.928;2023-01-30T11:21:48;101611.53;;;8.97;61.24
66945;BME280;53853;51.982;5.928;2023-01-30T11:24:21;101609.97;;;9.05;61.84
66945;BME280;53853;51.982;5.928;2023-01-30T11:26:52;101622.19;;;9.08;61.27
66945;BME280;53853;51.982;5.928;2023-01-30T11:29:29;101617.94;;;9.05;61.88
66945;BME280;53853;51.982;5.928;2023-01-30T11:32:02;101610.59;;;9.09;61.67
66945;BME280;53853;51.982;5.928;2023-01-30T11:34:32;101606.09;;;9.10;61.24
66945;BME280;53853;51.982;5.928;2023-01-30T11:37:14;101607.19;;;9.18;61.02
66945;BME280;53853;51.982;5.928;2023-01-30T11:39:51;101617.84;;;9.18;61.03
66945;BME280;53853;51.982;5.928;2023-01-30T11:42:28;101613.25;;;9.20;60.36
66945;BME280;53853;51.982;5.928;2023-01-30T11:45:01;101621.19;;;9.32;61.26
66945;BME280;53853;51.982;5.928;2023-01-30T11:47:31;101631.22;;;9.39;59.54
66945;BME280;53853;51.982;5.928;2023-01-30T11:50:01;101603.41;;;9.43;59.49
66945;BME280;53853;51.982;5.928;2023-01-30T11:52:35;101606.19;;;9.42;57.88
66945;BME280;53853;51.982;5.928;2023-01-30T11:55:11;101623.72;;;9.45;57.67
66945;BME280;53853;51.982;5.928;2023-01-30T11:57:44;101642.22;;;9.46;56.51
66945;BME280;53853;51.982;5.928;2023-01-30T12:00:20;101631.94;;;9.41;56.67
66945;BME280;53853;51.982;5.928;2023-01-30T12:02:52;101635.94;;;9.47;58.12
66945;BME280;53853;51.982;5.928;2023-01-30T12:05:29;101625.53;;;9.55;58.18
66945;BME280;53853;51.982;5.928;2023-01-30T12:08:24;101644.25;;;9.65;56.97
66945;BME280;53853;51.982;5.928;2023-01-30T12:10:58;101650.91;;;9.59;55.61
66945;BME280;53853;51.982;5.928;2023-01-30T12:13:32;101633.38;;;9.57;55.54
66945;BME280;53853;51.982;5.928;2023-01-30T12:16:21;101631.44;;;9.59;57.30
66945;BME280;53853;51.982;5.928;2023-01-30T12:18:58;101632.16;;;9.61;57.01
66945;BME280;53853;51.982;5.928;2023-01-30T12:21:41;101645.47;;;9.61;56.67
66945;BME280;53853;51.982;5.928;2023-01-30T12:24:21;101625.41;;;9.57;55.01
66945;BME280;53853;51.982;5.928;2023-01-30T12:26:57;101634.34;;;9.56;56.22
66945;BME280;53853;51.982;5.928;2023-01-30T12:29:30;101645.72;;;9.47;55.17
66945;BME280;53853;51.982;5.928;2023-01-30T12:32:08;101643.31;;;9.43;56.05
66945;BME280;53853;51.982;5.928;2023-01-30T12:34:40;101648.13;;;9.50;57.08
66945;BME280;53853;51.982;5.928;2023-01-30T12:40:20;101652.97;;;9.56;56.95
66945;BME280;53853;51.982;5.928;2023-01-30T12:46:06;101664.09;;;9.61;55.60
66945;BME280;53853;51.982;5.928;2023-01-30T12:49:03;101658.06;;;9.59;55.88
66945;BME280;53853;51.982;5.928;2023-01-30T12:51:47;101660.25;;;9.54;55.45
66945;BME280;53853;51.982;5.928;2023-01-30T12:54:28;101648.63;;;9.55;55.15
66945;BME280;53853;51.982;5.928;2023-01-30T12:57:11;101663.38;;;9.48;55.76
66945;BME280;53853;51.982;5.928;2023-01-30T12:59:51;101673.91;;;9.49;55.16
66945;BME280;53853;51.982;5.928;2023-01-30T13:02:42;101671.84;;;9.53;56.06
66945;BME280;53853;51.982;5.928;2023-01-30T13:05:31;101671.47;;;9.57;55.83
66945;BME280;53853;51.982;5.928;2023-01-30T13:08:13;101670.41;;;9.60;55.95
66945;BME280;53853;51.982;5.928;2023-01-30T13:10:50;101702.34;;;9.60;55.30
66945;BME280;53853;51.982;5.928;2023-01-30T13:13:28;101694.34;;;9.49;55.89
66945;BME280;53853;51.982;5.928;2023-01-30T13:16:05;101701.47;;;9.37;55.71
66945;BME280;53853;51.982;5.928;2023-01-30T13:18:42;101713.34;;;9.33;56.11
66945;BME280;53853;51.982;5.928;2023-01-30T13:21:22;101701.97;;;9.31;56.40
66945;BME280;53853;51.982;5.928;2023-01-30T13:24:05;101701.84;;;9.32;56.89
66945;BME280;53853;51.982;5.928;2023-01-30T13:26:41;101703.06;;;9.28;55.97
66945;BME280;53853;51.982;5.928;2023-01-30T13:29:15;101714.78;;;9.25;56.65
66945;BME280;53853;51.982;5.928;2023-01-30T13:31:51;101715.13;;;9.21;56.76
66945;BME280;53853;51.982;5.928;2023-01-30T13:34:29;101717.56;;;9.24;57.68
66945;BME280;53853;51.982;5.928;2023-01-30T13:37:06;101722.03;;;9.23;57.38
66945;BME280;53853;51.982;5.928;2023-01-30T13:39:41;101734.97;;;9.28;57.18
66945;BME280;53853;51.982;5.928;2023-01-30T13:42:20;101726.25;;;9.26;57.03
66945;BME280;53853;51.982;5.928;2023-01-30T13:44:53;101723.59;;;9.26;57.35
66945;BME280;53853;51.982;5.928;2023-01-30T13:47:37;101743.66;;;9.19;56.79
66945;BME280;53853;51.982;5.928;2023-01-30T13:50:39;101747.28;;;9.18;57.50
66945;BME280;53853;51.982;5.928;2023-01-30T13:53:16;101747.16;;;9.19;57.01
66945;BME280;53853;51.982;5.928;2023-01-30T13:55:54;101767.50;;;9.20;57.41